Terminal Aerodrome Forecast
Issued by NWS Austin/San Antonio, TX

Home | Current Version | Previous Version | Text Only | Print | Product List | Glossary On
Versions: 1 2 3 4 5 6 7 8 9 10 11 12 13 14 15 16 17 18 19
000
FTUS44 KEWX 281143
TAFDRT
TAF
KDRT 281143Z 2812/2912 09008KT P6SM BKN250
     FM281700 35011KT P6SM OVC100
     FM282300 02012KT P6SM VCTS BKN050CB
     FM290200 02012KT 5SM -TSRA BR OVC040CB
     FM291000 04010KT 5SM -SHRA BR OVC030=

USA.gov is the U.S. government's official web portal to all federal, state and local government web resources and services.